Time;durP1;ratioP1;P1;durP2;ratioP2;P2;SDS_P1;SDS_P2;PMS_P1;PMS_P2;Temp;Humidity;BMP_temperature;BMP_pressure;BME280_temperature;BME280_humidity;BME280_pressure;Samples;Min_cycle;Max_cycle;Signal;HPM_P1;HPM_P2
2023/04/11 00:00:19;;;;;;;49.05;26.60;;;;;;;11.26;46.36;100470.72;5019460;28;20382;-61
2023/04/11 00:02:45;;;;;;;41.38;25.33;;;;;;;11.28;46.49;100477.66;5032618;28;20352;-61
2023/04/11 00:05:11;;;;;;;45.78;25.85;;;;;;;11.23;46.73;100471.78;5025977;28;20045;-59
2023/04/11 00:07:37;;;;;;;49.25;26.75;;;;;;;11.26;46.93;100481.44;5012600;28;20037;-61
2023/04/11 00:10:03;;;;;;;46.10;27.20;;;;;;;11.23;47.21;100487.84;5012546;28;20037;-58
2023/04/11 00:12:29;;;;;;;47.25;28.25;;;;;;;10.74;47.43;100411.91;5011947;28;20034;-61
2023/04/11 00:14:55;;;;;;;56.03;27.70;;;;;;;11.11;47.76;100478.03;5016986;28;20028;-62
2023/04/11 00:17:22;;;;;;;44.35;28.17;;;;;;;11.01;47.98;100481.38;5031723;28;20112;-61
2023/04/11 00:19:48;;;;;;;50.67;28.05;;;;;;;10.77;47.72;100462.56;5032364;28;20029;-60
2023/04/11 00:22:16;;;;;;;53.67;28.20;;;;;;;10.83;48.26;100482.69;5028752;28;20021;-62
2023/04/11 00:24:43;;;;;;;47.67;29.13;;;;;;;10.82;48.63;100480.97;5014498;28;20103;-59
2023/04/11 00:27:08;;;;;;;57.88;29.70;;;;;;;10.77;48.86;100490.19;5031389;28;20040;-59
2023/04/11 00:29:35;;;;;;;47.15;29.90;;;;;;;10.74;49.03;100471.69;5032005;28;20029;-60
2023/04/11 00:32:01;;;;;;;47.92;29.40;;;;;;;10.76;48.83;100475.09;5032176;28;20037;-61
2023/04/11 00:34:27;;;;;;;48.28;29.95;;;;;;;10.75;49.05;100476.06;5029260;28;20030;-61
2023/04/11 00:36:53;;;;;;;60.55;30.17;;;;;;;10.77;49.22;100476.81;5012448;28;20076;-62
2023/04/11 00:39:20;;;;;;;56.47;29.90;;;;;;;10.81;49.42;100481.94;5014777;28;20042;-62
2023/04/11 00:41:46;;;;;;;56.45;30.58;;;;;;;10.83;49.31;100477.34;5016117;28;20081;-60
2023/04/11 00:44:12;;;;;;;63.58;31.00;;;;;;;10.84;49.12;100479.03;5016924;28;20070;-59
2023/04/11 00:46:42;;;;;;;56.42;30.98;;;;;;;10.86;49.18;100479.81;5035971;28;20029;-63
2023/04/11 00:49:09;;;;;;;52.95;30.60;;;;;;;10.84;49.26;100481.72;5035857;28;20033;-63
2023/04/11 00:51:35;;;;;;;51.65;30.50;;;;;;;10.85;49.31;100480.75;5035601;28;20111;-59
2023/04/11 00:54:01;;;;;;;55.72;32.00;;;;;;;10.86;48.88;100482.50;5036125;28;20068;-61
2023/04/11 00:56:27;;;;;;;58.78;31.90;;;;;;;10.87;48.94;100482.38;5035179;28;20044;-61
2023/04/11 00:58:53;;;;;;;53.75;30.98;;;;;;;10.66;49.08;100441.91;5035309;28;20839;-62
2023/04/11 01:01:22;;;;;;;53.78;29.65;;;;;;;10.86;48.74;100475.28;5035510;28;20103;-62
2023/04/11 01:03:48;;;;;;;54.22;30.80;;;;;;;10.84;48.75;100474.56;5034670;28;20028;-59
2023/04/11 01:06:17;;;;;;;55.58;31.20;;;;;;;10.89;48.89;100474.22;5033675;28;20105;-63
2023/04/11 01:08:45;;;;;;;58.83;30.73;;;;;;;10.81;48.54;100463.19;5018116;28;20236;-62
2023/04/11 01:11:12;;;;;;;52.72;29.90;;;;;;;10.82;48.80;100470.25;5015415;28;20056;-60
2023/04/11 01:13:40;;;;;;;59.92;30.67;;;;;;;10.76;48.78;100480.44;5015811;28;20173;-61
2023/04/11 01:16:06;;;;;;;47.20;28.58;;;;;;;10.71;49.25;100477.25;5031567;28;20051;-59
2023/04/11 01:18:31;;;;;;;56.80;29.60;;;;;;;10.73;49.07;100474.44;5034991;28;20120;-62
2023/04/11 01:20:59;;;;;;;45.40;28.17;;;;;;;10.72;48.74;100470.94;5035548;28;20037;-61
2023/04/11 01:23:25;;;;;;;45.53;27.58;;;;;;;10.76;48.41;100475.09;5035244;28;20030;-62
2023/04/11 01:25:51;;;;;;;46.78;27.83;;;;;;;10.81;48.69;100477.47;5021341;28;20198;-61
2023/04/11 01:28:17;;;;;;;51.08;27.77;;;;;;;10.79;48.47;100471.34;5015529;28;20428;-60
2023/04/11 01:30:43;;;;;;;51.00;28.35;;;;;;;10.86;48.01;100477.13;5015058;28;20034;-59
2023/04/11 01:33:09;;;;;;;45.50;28.40;;;;;;;10.87;48.13;100478.84;5031670;28;20114;-61
2023/04/11 01:35:35;;;;;;;51.83;28.48;;;;;;;10.88;48.27;100478.72;5023713;28;20030;-59
2023/04/11 01:38:02;;;;;;;51.42;28.10;;;;;;;10.89;48.12;100476.91;5014471;28;20040;-60
2023/04/11 01:40:28;;;;;;;45.67;28.17;;;;;;;10.84;48.39;100479.91;5015285;28;20089;-60
2023/04/11 01:42:54;;;;;;;50.47;28.20;;;;;;;10.76;48.40;100472.41;5015363;28;20037;-57
2023/04/11 01:45:21;;;;;;;52.80;28.20;;;;;;;10.81;48.12;100476.59;5023458;28;20064;-60
2023/04/11 01:47:46;;;;;;;45.15;27.25;;;;;;;10.59;48.01;100446.84;5034544;28;20055;-62
2023/04/11 01:50:12;;;;;;;44.70;26.40;;;;;;;10.70;48.07;100470.19;5034027;28;20484;-61
2023/04/11 01:52:37;;;;;;;45.03;26.77;;;;;;;10.63;48.20;100469.75;5034341;28;20085;-62
2023/04/11 01:55:03;;;;;;;39.65;26.15;;;;;;;10.61;47.81;100465.50;5028116;28;20038;-66
2023/04/11 01:57:29;;;;;;;40.30;24.73;;;;;;;10.58;47.85;100463.00;5014762;28;20338;-63
2023/04/11 01:59:55;;;;;;;42.00;24.60;;;;;;;10.63;47.61;100468.91;5026933;28;20399;-58
2023/04/11 02:02:20;;;;;;;35.60;24.83;;;;;;;10.66;47.67;100470.50;5034664;28;20037;-59
2023/04/11 02:04:46;;;;;;;38.55;24.27;;;;;;;10.52;47.07;100444.69;5028573;28;20052;-61
2023/04/11 02:07:11;;;;;;;36.70;24.17;;;;;;;10.71;47.04;100466.53;5019656;28;20423;-61
2023/04/11 02:09:37;;;;;;;38.08;24.65;;;;;;;10.77;46.82;100470.59;5028389;28;20032;-61
2023/04/11 02:12:03;;;;;;;34.70;23.55;;;;;;;10.77;47.36;100479.50;5034597;28;20037;-61
2023/04/11 02:14:40;;;;;;;36.55;24.08;;;;;;;10.84;47.05;100471.00;5034386;28;20025;-59
2023/04/11 02:17:08;;;;;;;38.55;23.05;;;;;;;10.80;47.41;100473.06;5033634;28;20440;-63
2023/04/11 02:19:35;;;;;;;34.00;22.52;;;;;;;10.81;47.93;100474.78;5023611;28;20046;-65
2023/04/11 02:22:01;;;;;;;29.98;22.35;;;;;;;10.79;48.95;100475.84;5014666;28;20037;-61
2023/04/11 02:24:27;;;;;;;32.67;20.13;;;;;;;10.77;49.85;100478.66;4997184;28;20511;-61
2023/04/11 02:26:52;;;;;;;25.27;16.25;;;;;;;10.76;50.85;100471.56;5014202;28;20037;-60
2023/04/11 02:29:18;;;;;;;22.60;15.75;;;;;;;10.55;51.61;100434.63;5022422;28;20087;-61
2023/04/11 02:31:43;;;;;;;20.30;15.23;;;;;;;10.63;52.25;100463.56;5021045;28;20034;-60
2023/04/11 02:34:09;;;;;;;19.73;14.25;;;;;;;10.65;52.46;100471.47;5014004;28;20042;-59
2023/04/11 02:36:34;;;;;;;20.40;14.85;;;;;;;10.52;53.75;100460.75;5014357;28;20127;-65
2023/04/11 02:39:00;;;;;;;25.23;15.57;;;;;;;10.50;55.49;100463.56;5018867;28;20029;-59
2023/04/11 02:41:26;;;;;;;18.70;14.60;;;;;;;10.44;56.66;100464.84;5034017;28;20072;-58
2023/04/11 02:43:52;;;;;;;20.60;14.93;;;;;;;10.40;57.25;100462.44;5033541;28;20417;-61
2023/04/11 02:46:18;;;;;;;18.83;15.55;;;;;;;10.33;57.22;100456.66;5033597;28;20025;-60
2023/04/11 02:48:43;;;;;;;25.02;17.10;;;;;;;10.31;56.68;100463.94;5022253;28;20034;-61
2023/04/11 02:51:09;;;;;;;22.42;16.50;;;;;;;10.25;57.12;100465.25;5033522;28;20048;-62
2023/04/11 02:53:34;;;;;;;22.40;17.15;;;;;;;10.22;58.42;100467.28;5033836;28;20376;-61
2023/04/11 02:56:00;;;;;;;23.05;17.25;;;;;;;10.17;58.91;100470.25;5033188;28;20026;-61
2023/04/11 02:58:27;;;;;;;26.85;17.80;;;;;;;10.15;59.12;100473.06;5029685;28;20887;-61
2023/04/11 03:00:53;;;;;;;25.25;17.75;;;;;;;10.12;59.46;100465.19;5013364;28;20042;-61
2023/04/11 03:03:18;;;;;;;22.15;16.50;;;;;;;10.11;59.65;100471.50;5012679;28;20394;-60
2023/04/11 03:05:44;;;;;;;23.98;17.77;;;;;;;9.89;59.87;100442.72;5013306;28;20037;-59
2023/04/11 03:08:09;;;;;;;27.45;17.35;;;;;;;9.94;60.43;100456.63;5014393;28;20030;-62
2023/04/11 03:10:35;;;;;;;19.02;16.38;;;;;;;9.81;61.40;100445.91;5032431;28;20034;-61
2023/04/11 03:13:00;;;;;;;26.63;17.55;;;;;;;9.87;61.70;100460.69;5016268;28;20049;-61
2023/04/11 03:15:26;;;;;;;24.48;16.92;;;;;;;9.82;62.52;100458.31;5013387;28;20029;-58
2023/04/11 03:17:52;;;;;;;25.05;17.02;;;;;;;9.77;62.83;100455.09;5012281;28;20052;-61
2023/04/11 03:20:18;;;;;;;26.30;18.00;;;;;;;9.71;63.37;100458.19;5014366;28;20030;-59
2023/04/11 03:22:45;;;;;;;24.15;17.25;;;;;;;9.63;63.11;100467.56;5012584;28;20045;-59
2023/04/11 03:25:10;;;;;;;26.80;17.90;;;;;;;9.63;64.73;100462.22;5013064;28;20034;-62
2023/04/11 03:27:36;;;;;;;23.27;17.13;;;;;;;9.68;65.05;100461.91;5012439;28;20022;-58
2023/04/11 03:30:02;;;;;;;20.90;16.60;;;;;;;9.73;62.88;100458.94;5029152;28;20360;-60
2023/04/11 03:32:29;;;;;;;22.35;16.05;;;;;;;9.75;62.56;100451.66;5032692;28;20041;-62
2023/04/11 03:34:56;;;;;;;19.92;16.13;;;;;;;9.58;62.15;100416.22;5032673;28;20129;-61
2023/04/11 03:37:21;;;;;;;23.58;15.68;;;;;;;9.82;62.73;100455.63;5016535;28;20117;-62
2023/04/11 03:39:46;;;;;;;21.52;14.85;;;;;;;9.85;60.60;100449.22;5026627;28;20133;-59
2023/04/11 03:42:12;;;;;;;19.98;14.50;;;;;;;9.89;60.53;100448.06;5031083;28;20474;-62
2023/04/11 03:44:37;;;;;;;18.13;15.35;;;;;;;9.96;62.47;100444.00;5021716;28;20492;-61
2023/04/11 03:47:03;;;;;;;23.27;16.27;;;;;;;9.99;62.09;100437.59;5021820;28;20112;-62
2023/04/11 03:49:28;;;;;;;20.13;16.27;;;;;;;10.04;62.04;100443.47;5033397;28;20140;-62
2023/04/11 03:51:54;;;;;;;19.92;15.13;;;;;;;10.10;60.76;100451.06;5042362;28;20456;-63
2023/04/11 03:54:20;;;;;;;19.27;16.05;;;;;;;10.14;61.18;100441.91;5041261;28;20053;-60
2023/04/11 03:56:46;;;;;;;18.90;15.73;;;;;;;10.20;60.47;100437.91;5029193;28;20042;-62
2023/04/11 03:59:12;;;;;;;22.50;16.20;;;;;;;10.27;62.84;100441.03;5015323;28;20092;-61
2023/04/11 04:01:38;;;;;;;18.50;15.73;;;;;;;10.32;61.49;100441.56;5029893;28;20044;-62
2023/04/11 04:04:04;;;;;;;21.35;15.65;;;;;;;10.36;61.93;100444.91;5035011;28;20126;-62
2023/04/11 04:06:29;;;;;;;19.10;15.52;;;;;;;10.43;61.41;100441.72;5031750;28;20837;-61
2023/04/11 04:08:55;;;;;;;19.92;15.68;;;;;;;10.37;59.93;100418.03;5031275;28;20444;-60
2023/04/11 04:11:20;;;;;;;20.75;15.82;;;;;;;10.58;59.72;100445.13;5026103;28;20038;-63
2023/04/11 04:13:46;;;;;;;18.45;15.80;;;;;;;10.65;61.27;100447.38;5013352;28;20037;-62
2023/04/11 04:16:11;;;;;;;19.45;15.02;;;;;;;10.70;61.46;100454.13;5017064;28;20038;-62
2023/04/11 04:18:37;;;;;;;19.10;15.52;;;;;;;10.77;60.95;100447.34;5034855;28;20404;-63
2023/04/11 04:21:02;;;;;;;21.00;16.13;;;;;;;10.86;61.22;100440.47;5035004;28;20046;-63
2023/04/11 04:23:28;;;;;;;18.75;15.45;;;;;;;10.89;60.23;100421.50;5036469;28;20487;-64
2023/04/11 04:25:56;;;;;;;21.75;15.45;;;;;;;11.15;59.88;100447.38;5036437;28;20426;-62
2023/04/11 04:28:24;;;;;;;21.20;16.70;;;;;;;11.32;56.27;100448.81;5035800;28;20049;-63
2023/04/11 04:30:53;;;;;;;20.15;16.40;;;;;;;11.34;56.06;100415.56;5035044;28;20337;-63
2023/04/11 04:33:22;;;;;;;19.70;16.25;;;;;;;11.76;57.54;100446.44;5015916;28;20037;-64
2023/04/11 04:35:50;;;;;;;18.60;15.63;;;;;;;12.07;56.60;100449.50;4999374;28;20045;-63
2023/04/11 04:38:18;;;;;;;22.80;16.27;;;;;;;12.29;54.84;100442.44;5015007;28;20098;-62
2023/04/11 04:40:44;;;;;;;25.40;18.23;;;;;;;12.31;53.08;100419.06;5015143;28;20037;-65
2023/04/11 04:43:16;;;;;;;23.63;17.02;;;;;;;12.60;51.80;100440.91;5034055;28;20379;-63
2023/04/11 04:45:45;;;;;;;21.52;17.30;;;;;;;12.65;52.19;100437.84;5031121;28;20076;-68
2023/04/11 04:48:13;;;;;;;21.48;17.40;;;;;;;12.71;50.34;100437.34;5016603;28;20026;-62
2023/04/11 04:50:38;;;;;;;25.75;18.42;;;;;;;12.66;50.29;100439.56;5016100;28;20030;-64
2023/04/11 04:53:05;;;;;;;21.92;16.83;;;;;;;12.70;50.39;100419.53;5033413;28;20486;-64
2023/04/11 04:55:30;;;;;;;22.00;17.42;;;;;;;12.86;49.99;100429.88;5035750;28;20124;-63
2023/04/11 04:57:56;;;;;;;22.40;17.88;;;;;;;12.99;50.05;100436.97;5035760;28;20344;-62
2023/04/11 05:00:22;;;;;;;23.15;17.17;;;;;;;13.00;48.97;100415.31;5026276;28;20026;-63
2023/04/11 05:02:47;;;;;;;21.40;16.95;;;;;;;13.06;48.81;100427.41;5030337;28;20476;-64
2023/04/11 05:05:14;;;;;;;22.90;17.25;;;;;;;13.05;48.98;100418.53;5034943;28;20037;-67
2023/04/11 05:07:40;;;;;;;21.88;17.23;;;;;;;13.11;48.67;100419.00;5035635;28;20448;-63
2023/04/11 05:10:06;;;;;;;30.05;18.10;;;;;;;13.14;48.59;100416.03;5030461;28;20026;-64
2023/04/11 05:12:31;;;;;;;21.95;18.13;;;;;;;13.24;47.64;100422.34;5028152;28;20048;-62
2023/04/11 05:14:56;;;;;;;24.50;18.25;;;;;;;13.28;47.46;100417.59;5035396;28;20033;-63
2023/04/11 05:17:23;;;;;;;24.42;19.15;;;;;;;13.31;46.83;100415.50;5035275;28;20036;-64
2023/04/11 05:19:49;;;;;;;24.77;18.45;;;;;;;13.51;46.81;100418.41;5035094;28;20037;-64
2023/04/11 05:22:14;;;;;;;24.15;19.58;;;;;;;13.83;46.04;100412.13;5024570;28;20036;-66
2023/04/11 05:24:39;;;;;;;22.95;18.83;;;;;;;14.26;44.97;100414.81;5014798;28;20034;-63
2023/04/11 05:27:05;;;;;;;25.50;19.45;;;;;;;14.92;44.15;100409.00;5014282;28;20030;-63
2023/04/11 05:29:31;;;;;;;20.00;17.75;;;;;;;17.25;39.47;100405.28;5015132;28;20038;-64
2023/04/11 05:31:56;;;;;;;28.30;17.85;;;;;;;20.00;34.25;100373.00;5022937;28;20037;-64
2023/04/11 05:34:22;;;;;;;20.40;16.65;;;;;;;22.27;29.66;100402.13;5035425;28;20033;-63
2023/04/11 05:36:47;;;;;;;26.50;17.02;;;;;;;23.98;26.94;100399.28;5034916;28;20095;-63
2023/04/11 05:39:13;;;;;;;23.55;17.17;;;;;;;24.59;25.42;100401.41;5035299;28;20026;-63
2023/04/11 05:41:39;;;;;;;18.00;16.15;;;;;;;25.17;24.34;100364.56;5029683;28;20022;-63
2023/04/11 05:44:04;;;;;;;20.95;17.23;;;;;;;26.12;23.97;100390.16;5015221;28;20034;-64
2023/04/11 05:46:34;;;;;;;22.17;17.30;;;;;;;27.17;22.56;100393.88;5023938;28;20040;-62
2023/04/11 05:49:00;;;;;;;17.77;15.98;;;;;;;26.63;22.88;100398.72;5034873;28;20061;-63
2023/04/11 05:51:25;;;;;;;18.83;16.52;;;;;;;25.87;23.88;100404.53;5032139;28;20100;-67
2023/04/11 05:53:51;;;;;;;18.48;16.55;;;;;;;25.07;24.49;100395.09;5014595;28;20449;-64
2023/04/11 05:56:16;;;;;;;20.75;16.45;;;;;;;24.21;25.84;100372.56;5014438;28;20096;-65
2023/04/11 05:58:43;;;;;;;18.98;17.02;;;;;;;23.56;26.46;100386.31;5014869;28;20058;-63
2023/04/11 06:01:13;;;;;;;19.65;17.55;;;;;;;22.97;27.70;100398.25;5020591;28;20393;-64
2023/04/11 06:03:38;;;;;;;19.08;17.02;;;;;;;22.51;28.15;100379.22;5015006;28;20045;-65
2023/04/11 06:06:04;;;;;;;21.55;16.67;;;;;;;22.77;26.71;100386.06;5014354;28;20034;-64
2023/04/11 06:08:30;;;;;;;18.25;16.50;;;;;;;23.97;25.25;100381.19;5013716;28;20123;-64
2023/04/11 06:10:55;;;;;;;19.75;17.65;;;;;;;24.36;24.73;100388.03;5023095;28;20041;-64
2023/04/11 06:13:21;;;;;;;17.92;15.77;;;;;;;24.49;23.31;100379.88;5017664;28;20026;-64
2023/04/11 06:15:46;;;;;;;17.05;15.27;;;;;;;26.58;21.23;100388.38;5014365;28;20467;-64
2023/04/11 06:18:12;;;;;;;15.20;13.80;;;;;;;26.88;19.95;100378.81;5013311;28;20033;-64
2023/04/11 06:20:38;;;;;;;15.88;14.18;;;;;;;25.82;21.20;100360.44;5014590;28;20038;-69
2023/04/11 06:23:03;;;;;;;17.00;14.55;;;;;;;25.75;21.12;100387.88;4998012;28;20033;-64
2023/04/11 06:25:29;;;;;;;16.67;14.95;;;;;;;27.18;19.56;100384.56;5014256;28;20041;-65
2023/04/11 06:27:54;;;;;;;15.82;14.23;;;;;;;29.13;17.59;100375.50;5025044;28;20087;-65
2023/04/11 06:30:20;;;;;;;17.15;14.23;;;;;;;30.90;16.07;100378.59;5034145;28;20040;-66
2023/04/11 06:32:45;;;;;;;16.30;14.63;;;;;;;31.60;14.98;100381.28;5021061;28;20038;-64
2023/04/11 06:35:11;;;;;;;16.13;14.43;;;;;;;31.60;15.67;100390.44;5042153;28;20034;-64
2023/04/11 06:37:36;;;;;;;16.77;14.85;;;;;;;32.74;14.94;100358.00;5041398;28;20336;-65
2023/04/11 06:40:04;;;;;;;16.65;15.00;;;;;;;34.08;13.66;100377.88;5044435;28;20021;-66
2023/04/11 06:42:30;;;;;;;16.38;14.73;;;;;;;33.68;13.73;100384.78;5035458;28;20022;-66
2023/04/11 06:44:56;;;;;;;20.25;15.73;;;;;;;32.32;14.67;100378.81;5033482;28;20058;-64
2023/04/11 06:47:21;;;;;;;18.52;15.07;;;;;;;31.35;15.45;100377.81;5007734;28;20037;-65
2023/04/11 06:49:47;;;;;;;19.77;15.27;;;;;;;30.61;15.85;100376.66;5030874;28;20025;-72
2023/04/11 06:52:12;;;;;;;17.02;15.23;;;;;;;30.45;16.43;100375.44;5026336;28;20045;-64
2023/04/11 06:54:39;;;;;;;17.15;14.75;;;;;;;32.17;14.99;100371.94;5031563;28;20049;-65
2023/04/11 06:57:04;;;;;;;19.00;15.40;;;;;;;33.23;13.91;100371.03;5032828;28;20037;-63
2023/04/11 06:59:30;;;;;;;16.35;14.65;;;;;;;32.08;14.84;100363.22;5032361;28;20052;-65
2023/04/11 07:01:57;;;;;;;19.02;15.98;;;;;;;31.25;15.29;100358.25;5021328;28;20025;-63
2023/04/11 07:04:23;;;;;;;17.13;15.43;;;;;;;31.55;15.05;100376.47;5012859;28;20112;-66
2023/04/11 07:06:48;;;;;;;16.92;15.15;;;;;;;31.90;14.04;100371.81;5013377;28;20037;-66
2023/04/11 07:09:14;;;;;;;17.08;15.48;;;;;;;33.12;13.38;100370.09;5012788;28;20022;-66
2023/04/11 07:11:40;;;;;;;17.42;15.68;;;;;;;34.08;12.21;100380.66;5016348;28;20515;-68
2023/04/11 07:14:06;;;;;;;17.75;15.85;;;;;;;32.31;13.86;100377.09;5015540;28;20041;-66
2023/04/11 07:16:32;;;;;;;21.45;15.30;;;;;;;30.45;15.28;100369.06;5024540;28;20472;-67
2023/04/11 07:18:58;;;;;;;17.25;15.45;;;;;;;30.01;15.84;100369.47;5012854;28;20453;-66
2023/04/11 07:21:26;;;;;;;18.67;16.75;;;;;;;29.97;16.01;100368.25;5016481;28;20022;-66
2023/04/11 07:23:52;;;;;;;19.02;17.05;;;;;;;29.58;16.19;100357.69;5012633;28;20038;-65
2023/04/11 07:26:17;;;;;;;17.98;16.10;;;;;;;30.30;15.52;100364.91;5012859;28;20376;-66
2023/04/11 07:28:43;;;;;;;22.08;17.83;;;;;;;31.81;13.93;100352.00;5012911;28;20030;-66
2023/04/11 07:31:11;;;;;;;20.48;17.55;;;;;;;33.27;13.28;100357.47;5026207;28;20029;-67
2023/04/11 07:33:37;;;;;;;21.92;17.65;;;;;;;34.44;12.43;100350.25;5031829;28;20045;-66
2023/04/11 07:36:03;;;;;;;25.25;17.38;;;;;;;35.45;11.75;100354.72;5032393;28;20025;-63
2023/04/11 07:38:29;;;;;;;26.55;17.70;;;;;;;36.54;11.08;100353.72;5037525;28;20112;-62
2023/04/11 07:40:56;;;;;;;20.55;17.10;;;;;;;37.18;10.25;100351.97;5036242;28;20114;-61
2023/04/11 07:43:22;;;;;;;19.08;16.50;;;;;;;37.09;9.82;100355.69;5040093;28;20021;-64
2023/04/11 07:45:48;;;;;;;20.85;16.10;;;;;;;36.16;10.79;100342.97;5041004;28;20489;-63
2023/04/11 07:48:13;;;;;;;22.20;17.23;;;;;;;35.10;11.25;100336.91;5031946;28;20064;-60
2023/04/11 07:50:39;;;;;;;19.25;17.02;;;;;;;33.32;12.71;100340.88;5041887;28;20025;-61
2023/04/11 07:53:04;;;;;;;19.90;15.95;;;;;;;31.69;13.83;100341.00;5036639;28;20042;-61
2023/04/11 07:55:30;;;;;;;18.30;16.50;;;;;;;30.36;14.18;100324.41;5038899;28;20041;-63
2023/04/11 07:57:55;;;;;;;24.40;17.90;;;;;;;29.00;15.52;100322.25;5039635;28;20029;-62
2023/04/11 08:00:22;;;;;;;22.08;17.65;;;;;;;28.38;16.04;100301.22;5041021;28;20033;-65
2023/04/11 08:02:48;;;;;;;19.00;16.95;;;;;;;29.08;15.78;100324.66;5043001;28;20049;-63
2023/04/11 08:05:13;;;;;;;23.30;17.50;;;;;;;29.65;15.14;100317.00;5037788;28;20036;-63
2023/04/11 08:07:40;;;;;;;21.27;17.42;;;;;;;29.40;14.94;100315.28;5035136;28;20463;-65
2023/04/11 08:10:06;;;;;;;20.77;17.25;;;;;;;28.28;15.86;100314.69;5043152;28;20084;-63
2023/04/11 08:12:31;;;;;;;23.35;17.42;;;;;;;27.10;17.03;100315.28;5034055;28;20108;-63
2023/04/11 08:14:57;;;;;;;32.20;18.30;;;;;;;25.84;17.89;100316.34;5034594;28;20182;-65
2023/04/11 08:17:27;;;;;;;21.02;17.25;;;;;;;24.83;19.13;100317.06;5040708;28;20446;-62
2023/04/11 08:19:56;;;;;;;25.98;18.30;;;;;;;23.94;19.94;100290.31;5041638;28;20033;-59
2023/04/11 08:22:21;;;;;;;25.65;17.75;;;;;;;23.29;20.76;100311.47;5043387;28;20451;-63
2023/04/11 08:24:47;;;;;;;26.85;18.52;;;;;;;22.83;21.50;100304.44;5042343;28;20036;-61
2023/04/11 08:27:12;;;;;;;19.67;16.48;;;;;;;22.35;21.35;100275.72;5042460;28;20036;-63
2023/04/11 08:29:38;;;;;;;19.65;16.92;;;;;;;22.29;21.18;100298.31;5037372;28;20018;-64
2023/04/11 08:32:03;;;;;;;22.08;18.17;;;;;;;22.02;21.99;100289.78;5039650;28;20029;-60
2023/04/11 08:34:31;;;;;;;37.90;18.13;;;;;;;21.73;22.42;100280.56;5041423;28;20030;-60
2023/04/11 08:36:56;;;;;;;20.25;17.42;;;;;;;21.51;22.50;100296.72;5031864;28;20105;-64
2023/04/11 08:39:22;;;;;;;23.25;17.20;;;;;;;21.20;22.54;100286.75;5030775;28;20051;-63
2023/04/11 08:41:47;;;;;;;22.92;17.65;;;;;;;20.79;23.18;100296.94;5031591;28;20021;-61
2023/04/11 08:44:13;;;;;;;23.42;17.75;;;;;;;20.42;23.25;100293.00;5023787;28;20075;-62
2023/04/11 08:46:42;;;;;;;23.40;18.60;;;;;;;20.19;23.85;100290.22;5012928;28;20033;-63
2023/04/11 08:49:09;;;;;;;24.08;17.65;;;;;;;19.86;24.21;100291.13;5031429;28;20033;-63
2023/04/11 08:51:35;;;;;;;21.30;18.17;;;;;;;19.76;24.66;100293.19;5032647;28;20052;-63
2023/04/11 08:54:04;;;;;;;23.88;18.30;;;;;;;20.00;24.40;100284.16;5039403;28;20069;-65
2023/04/11 08:56:30;;;;;;;21.85;18.20;;;;;;;20.26;23.36;100285.78;5033378;28;20164;-62
2023/04/11 08:58:56;;;;;;;26.00;19.02;;;;;;;20.35;23.25;100253.97;5039909;28;20409;-63
2023/04/11 09:01:30;;;;;;;23.08;18.30;;;;;;;20.55;23.07;100275.28;5045449;28;20116;-65
2023/04/11 09:04:03;;;;;;;25.70;18.15;;;;;;;20.32;23.89;100270.63;5039193;28;20033;-67
2023/04/11 09:06:29;;;;;;;28.50;18.50;;;;;;;20.32;23.76;100268.75;5037044;28;20029;-66
2023/04/11 09:08:59;;;;;;;28.58;19.40;;;;;;;20.55;23.52;100269.84;5042279;28;20040;-66
2023/04/11 09:11:26;;;;;;;30.98;19.13;;;;;;;20.56;23.22;100266.09;5047778;28;20032;-67
2023/04/11 09:14:09;;;;;;;26.33;18.00;;;;;;;20.65;23.33;100257.72;5038218;28;20044;-70
2023/04/11 09:16:35;;;;;;;22.52;17.88;;;;;;;20.32;22.92;100254.31;5047419;28;20405;-67
2023/04/11 09:19:01;;;;;;;24.58;16.23;;;;;;;20.41;22.79;100261.41;5028666;28;20108;-63
2023/04/11 09:21:28;;;;;;;23.02;15.73;;;;;;;20.46;22.51;100245.38;5033818;28;20128;-62
2023/04/11 09:23:56;;;;;;;22.75;17.52;;;;;;;20.41;22.27;100255.97;5034819;28;20041;-60
2023/04/11 09:26:26;;;;;;;22.08;17.85;;;;;;;20.34;22.89;100246.84;5034028;28;20029;-62
2023/04/11 09:28:52;;;;;;;23.15;18.00;;;;;;;20.01;22.98;100241.50;5014496;28;20045;-64
2023/04/11 09:31:18;;;;;;;27.15;17.38;;;;;;;19.82;23.16;100232.75;5016176;28;20021;-62
2023/04/11 09:33:55;;;;;;;24.80;18.10;;;;;;;19.88;23.54;100237.47;5014982;28;20502;-59
2023/04/11 09:36:26;;;;;;;24.30;17.40;;;;;;;19.88;23.25;100234.75;5029748;28;20052;-64
2023/04/11 09:38:52;;;;;;;26.35;17.77;;;;;;;20.00;22.96;100237.09;5025667;28;20033;-65
2023/04/11 09:41:37;;;;;;;20.38;16.15;;;;;;;20.15;22.88;100229.91;5034213;28;20029;-63
2023/04/11 09:44:02;;;;;;;23.67;17.58;;;;;;;19.87;23.32;100226.75;5023806;28;20029;-63
2023/04/11 09:46:28;;;;;;;20.27;16.70;;;;;;;19.77;23.26;100225.09;5017064;28;20048;-62
2023/04/11 09:48:54;;;;;;;19.10;16.70;;;;;;;19.81;23.45;100220.19;5019287;28;20045;-59
2023/04/11 09:51:21;;;;;;;21.20;17.08;;;;;;;19.97;22.83;100223.88;5015185;28;20099;-63
2023/04/11 09:53:46;;;;;;;31.67;17.77;;;;;;;20.13;23.23;100222.94;5039452;28;20025;-62
2023/04/11 09:56:12;;;;;;;19.08;16.33;;;;;;;20.13;22.82;100220.22;5054327;28;20033;-64
2023/04/11 09:58:39;;;;;;;20.42;16.50;;;;;;;20.01;22.42;100208.91;5050596;28;20065;-63
2023/04/11 10:01:07;;;;;;;20.58;16.08;;;;;;;19.83;23.07;100209.13;5033542;28;20550;-60
2023/04/11 10:03:35;;;;;;;26.10;16.95;;;;;;;19.83;23.24;100201.84;5023082;28;20437;-60
2023/04/11 10:06:08;;;;;;;19.40;17.00;;;;;;;19.82;22.98;100200.13;5027491;28;20116;-54
2023/04/11 10:08:35;;;;;;;24.15;16.38;;;;;;;19.55;23.04;100194.13;5013177;28;20460;-61
2023/04/11 10:11:08;;;;;;;19.98;16.52;;;;;;;19.41;23.74;100189.38;5013583;28;20126;-60
2023/04/11 10:13:33;;;;;;;24.02;16.83;;;;;;;19.16;24.05;100184.00;5017100;28;20079;-62
2023/04/11 10:16:08;;;;;;;18.95;16.23;;;;;;;19.10;24.13;100176.56;5042112;28;20040;-65
2023/04/11 10:18:35;;;;;;;22.60;17.70;;;;;;;19.00;24.68;100185.69;5039998;28;20113;-62
2023/04/11 10:21:00;;;;;;;22.42;16.58;;;;;;;19.04;24.68;100175.34;5019562;28;20350;-59
2023/04/11 10:23:26;;;;;;;23.23;17.08;;;;;;;19.17;24.35;100174.84;5012172;28;20037;-61
2023/04/11 10:25:54;;;;;;;19.90;16.73;;;;;;;19.40;24.45;100176.84;5012437;28;20026;-62
2023/04/11 10:28:39;;;;;;;18.40;16.08;;;;;;;19.74;23.94;100173.84;5017770;28;20127;-58
2023/04/11 10:31:11;;;;;;;20.90;16.60;;;;;;;19.89;23.41;100173.94;5012718;28;20065;-58
2023/04/11 10:33:39;;;;;;;22.90;16.40;;;;;;;19.99;23.52;100167.47;5020855;28;20048;-58
2023/04/11 10:36:11;;;;;;;22.45;16.02;;;;;;;20.09;23.38;100168.13;5031017;28;20117;-62
2023/04/11 10:38:39;;;;;;;21.02;15.57;;;;;;;20.14;23.43;100171.16;5029085;28;20052;-63
2023/04/11 10:41:19;;;;;;;20.42;16.17;;;;;;;20.12;23.40;100167.75;5012008;28;20046;-62
2023/04/11 10:43:45;;;;;;;23.88;15.43;;;;;;;19.91;23.35;100165.66;5013701;28;20357;-57
2023/04/11 10:46:22;;;;;;;24.27;15.45;;;;;;;19.99;23.61;100162.91;5034156;28;20037;-60
2023/04/11 10:49:00;;;;;;;18.23;14.60;;;;;;;19.68;23.18;100127.50;5021133;28;20449;-61
2023/04/11 10:51:27;;;;;;;19.55;14.38;;;;;;;19.53;23.64;100151.84;5039601;28;20103;-62
2023/04/11 10:53:59;;;;;;;24.42;14.50;;;;;;;19.44;23.77;100142.88;5037655;28;20033;-60
2023/04/11 10:56:45;;;;;;;17.83;14.32;;;;;;;19.70;23.82;100142.63;5041467;28;20063;-61
2023/04/11 10:59:29;;;;;;;17.02;13.90;;;;;;;19.79;23.80;100135.28;5035701;28;20177;-61
2023/04/11 11:01:55;;;;;;;20.15;13.82;;;;;;;19.50;23.78;100120.44;5039630;28;20475;-61
2023/04/11 11:04:33;;;;;;;19.50;13.85;;;;;;;19.49;23.98;100130.47;5042584;28;20368;-60
2023/04/11 11:07:00;;;;;;;18.42;14.80;;;;;;;19.18;24.06;100128.53;5050859;28;20493;-62